createdAt,value
2022-09-18T00:00:48.455Z,8.18
2022-09-18T00:03:50.274Z,8.19
2022-09-18T00:06:51.853Z,8.18
2022-09-18T00:09:53.401Z,8.19
2022-09-18T00:12:54.905Z,8.20
2022-09-18T00:15:57.084Z,8.19
2022-09-18T00:18:58.945Z,8.21
2022-09-18T00:22:00.542Z,8.20
2022-09-18T00:25:02.208Z,8.17
2022-09-18T00:28:03.865Z,8.16
2022-09-18T00:31:10.539Z,8.11
2022-09-18T00:34:14.608Z,8.10
2022-09-18T00:37:16.229Z,8.07
2022-09-18T00:40:18.488Z,8.04
2022-09-18T00:43:25.664Z,8.02
2022-09-18T00:46:33.692Z,8.00
2022-09-18T00:49:40.048Z,7.99
2022-09-18T00:53:07.761Z,7.96
2022-09-18T00:56:13.770Z,7.97
2022-09-18T00:59:22.289Z,7.97
2022-09-18T01:02:23.900Z,7.98
2022-09-18T01:05:33.680Z,7.99
2022-09-18T01:08:51.823Z,8.00
2022-09-18T01:12:21.577Z,7.99
2022-09-18T01:15:25.766Z,8.00
2022-09-18T01:18:53.700Z,7.99
2022-09-18T01:22:09.504Z,7.97
2022-09-18T01:25:35.642Z,7.96
2022-09-18T01:28:42.487Z,7.92
2022-09-18T01:31:51.823Z,7.90
2022-09-18T01:35:42.083Z,7.88
2022-09-18T01:39:02.022Z,7.84
2022-09-18T01:42:06.053Z,7.81
2022-09-18T01:45:16.021Z,7.81
2022-09-18T01:48:30.663Z,7.79
2022-09-18T01:51:54.157Z,7.76
2022-09-18T01:54:58.556Z,7.76
2022-09-18T01:58:23.900Z,7.73
2022-09-18T02:01:29.855Z,7.71
2022-09-18T02:04:35.777Z,7.71
2022-09-18T02:07:50.071Z,7.70
2022-09-18T02:11:10.656Z,7.66
2022-09-18T02:14:17.764Z,7.68
2022-09-18T02:17:28.892Z,7.65
2022-09-18T02:20:31.862Z,7.65
2022-09-18T02:23:34.014Z,7.65
2022-09-18T02:26:38.457Z,7.64
2022-09-18T02:29:42.796Z,7.62
2022-09-18T02:32:44.465Z,7.58
2022-09-18T02:35:50.676Z,7.57
2022-09-18T02:38:58.023Z,7.54
2022-09-18T02:42:18.328Z,7.53
2022-09-18T02:45:19.800Z,7.51
2022-09-18T02:48:24.182Z,7.52
2022-09-18T02:51:45.313Z,7.49
2022-09-18T02:54:57.111Z,7.46
2022-09-18T02:58:21.074Z,7.43
2022-09-18T03:01:25.394Z,7.40
2022-09-18T03:04:27.978Z,7.35
2022-09-18T03:07:29.532Z,7.34
2022-09-18T03:10:31.413Z,7.32
2022-09-18T03:13:33.306Z,7.33
2022-09-18T03:16:34.956Z,7.31
2022-09-18T03:19:36.557Z,7.30
2022-09-18T03:22:38.112Z,7.29
2022-09-18T03:25:39.642Z,7.26
2022-09-18T03:28:41.266Z,7.23
2022-09-18T03:31:42.877Z,7.20
2022-09-18T03:34:44.931Z,7.20
2022-09-18T03:37:46.499Z,7.20
2022-09-18T03:40:48.192Z,7.19
2022-09-18T03:43:50.930Z,7.20
2022-09-18T03:46:52.573Z,7.19
2022-09-18T03:49:54.177Z,7.19
2022-09-18T03:52:56.022Z,7.20
2022-09-18T03:55:57.764Z,7.19
2022-09-18T03:58:59.357Z,7.21
2022-09-18T04:02:01.175Z,7.23
2022-09-18T04:05:04.415Z,7.22
2022-09-18T04:08:06.017Z,7.21
2022-09-18T04:11:07.625Z,7.21
2022-09-18T04:14:09.226Z,7.22
2022-09-18T04:17:11.153Z,7.25
2022-09-18T04:20:12.740Z,7.25
2022-09-18T04:23:14.570Z,7.26
2022-09-18T04:26:16.188Z,7.24
2022-09-18T04:29:17.685Z,7.22
2022-09-18T04:32:19.285Z,7.19
2022-09-18T04:35:20.978Z,7.19
2022-09-18T04:38:27.497Z,7.16
2022-09-18T04:41:29.024Z,7.16
2022-09-18T04:44:30.953Z,7.17
2022-09-18T04:47:32.496Z,7.18
2022-09-18T04:50:34.004Z,7.16
2022-09-18T04:53:37.975Z,7.16
2022-09-18T04:56:40.864Z,7.14
2022-09-18T04:59:42.493Z,7.12
2022-09-18T05:02:44.048Z,7.11
2022-09-18T05:05:45.561Z,7.10
2022-09-18T05:08:47.172Z,7.10
2022-09-18T05:11:48.875Z,7.10
2022-09-18T05:14:50.409Z,7.09
2022-09-18T05:18:11.136Z,7.07
2022-09-18T05:21:13.366Z,7.05
2022-09-18T05:24:14.950Z,7.04
2022-09-18T05:27:16.717Z,7.04
2022-09-18T05:30:18.222Z,7.05
2022-09-18T05:33:19.789Z,7.02
2022-09-18T05:36:21.292Z,7.02
2022-09-18T05:39:22.867Z,7.02
2022-09-18T05:42:24.368Z,7.04
2022-09-18T05:45:26.020Z,7.02
2022-09-18T05:48:28.201Z,7.02
2022-09-18T05:51:29.704Z,7.02
2022-09-18T05:54:31.256Z,7.02
2022-09-18T05:57:32.861Z,7.03
2022-09-18T06:00:35.474Z,7.04
2022-09-18T06:03:37.069Z,7.07
2022-09-18T06:06:38.597Z,7.11
2022-09-18T06:09:40.088Z,7.14
2022-09-18T06:12:41.676Z,7.21
2022-09-18T06:15:48.411Z,7.28
2022-09-18T06:18:50.149Z,7.35
2022-09-18T06:21:52.205Z,7.40
2022-09-18T06:24:53.737Z,7.40
2022-09-18T06:28:00.385Z,7.41
2022-09-18T06:31:03.350Z,7.42
2022-09-18T06:34:05.036Z,7.43
2022-09-18T06:37:09.868Z,7.44
2022-09-18T06:40:11.968Z,7.48
2022-09-18T06:43:13.730Z,7.52
2022-09-18T06:46:15.284Z,7.65
2022-09-18T06:49:16.905Z,7.71
2022-09-18T06:52:18.479Z,7.71
2022-09-18T06:55:20.365Z,7.71
2022-09-18T06:58:21.979Z,7.70
2022-09-18T07:01:23.792Z,7.70
2022-09-18T07:04:26.178Z,7.70
2022-09-18T07:07:27.739Z,7.70
2022-09-18T07:10:29.425Z,7.70
2022-09-18T07:13:32.321Z,7.72
2022-09-18T07:16:35.325Z,7.80
2022-09-18T07:19:37.964Z,8.09
2022-09-18T07:22:43.692Z,8.25
2022-09-18T07:25:48.138Z,8.40
2022-09-18T07:28:51.873Z,8.49
2022-09-18T07:31:53.488Z,8.57
2022-09-18T07:34:55.033Z,8.67
2022-09-18T07:38:05.911Z,8.76
2022-09-18T07:41:07.657Z,8.81
2022-09-18T07:44:09.905Z,8.86
2022-09-18T07:47:11.760Z,8.92
2022-09-18T07:50:16.017Z,9.04
2022-09-18T07:53:24.551Z,9.20
2022-09-18T07:56:26.080Z,9.39
2022-09-18T07:59:27.652Z,9.43
2022-09-18T08:02:29.585Z,9.36
2022-09-18T08:05:31.388Z,9.27
2022-09-18T08:08:35.595Z,9.19
2022-09-18T08:11:37.149Z,9.12
2022-09-18T08:14:38.715Z,9.07
2022-09-18T08:17:46.925Z,9.03
2022-09-18T08:20:48.542Z,9.01
2022-09-18T08:23:50.974Z,9.02
2022-09-18T08:26:53.811Z,9.02
2022-09-18T08:29:55.574Z,9.04
2022-09-18T08:33:06.234Z,9.04
2022-09-18T08:36:07.948Z,9.08
2022-09-18T08:39:10.254Z,9.14
2022-09-18T08:42:31.037Z,9.19
2022-09-18T08:46:07.868Z,9.24
2022-09-18T08:49:27.826Z,9.28
2022-09-18T08:52:37.243Z,9.37
2022-09-18T08:55:41.352Z,9.42
2022-09-18T08:58:55.865Z,9.44
2022-09-18T09:02:17.067Z,9.46
2022-09-18T09:05:37.929Z,9.45
2022-09-18T09:09:01.041Z,9.44
2022-09-18T09:12:41.413Z,9.42
2022-09-18T09:15:48.625Z,9.38
2022-09-18T09:18:59.435Z,9.36
2022-09-18T09:22:33.313Z,9.37
2022-09-18T09:26:00.017Z,9.37
2022-09-18T09:29:12.722Z,9.37
2022-09-18T09:32:38.806Z,9.41
2022-09-18T09:35:46.415Z,9.43
2022-09-18T09:39:00.608Z,9.42
2022-09-18T09:42:11.272Z,9.41
2022-09-18T09:45:29.551Z,9.39
2022-09-18T09:48:50.785Z,9.41
2022-09-18T09:52:13.277Z,9.49
2022-09-18T09:55:15.227Z,9.58
2022-09-18T09:58:19.506Z,9.74
2022-09-18T10:01:36.798Z,9.88
2022-09-18T10:05:10.502Z,10.07
2022-09-18T10:08:18.053Z,10.23
2022-09-18T10:11:20.383Z,10.41
2022-09-18T10:14:26.641Z,10.61
2022-09-18T10:17:33.191Z,10.79
2022-09-18T10:20:36.524Z,10.95
2022-09-18T10:23:41.111Z,11.11
2022-09-18T10:27:07.332Z,11.28
2022-09-18T10:30:15.333Z,11.45
2022-09-18T10:33:39.750Z,11.66
2022-09-18T10:36:43.348Z,11.87
2022-09-18T10:40:05.473Z,12.11
2022-09-18T10:43:08.127Z,12.28
2022-09-18T10:46:09.906Z,12.29
2022-09-18T10:49:20.768Z,12.28
2022-09-18T10:52:27.649Z,12.29
2022-09-18T10:55:30.981Z,12.18
2022-09-18T10:58:34.164Z,11.97
2022-09-18T11:01:36.552Z,11.78
2022-09-18T11:04:38.723Z,11.62
2022-09-18T11:07:48.736Z,11.54
2022-09-18T11:10:53.697Z,11.57
2022-09-18T11:14:08.033Z,11.67
2022-09-18T11:17:22.026Z,11.81
2022-09-18T11:20:30.213Z,11.98
2022-09-18T11:23:34.040Z,12.12
2022-09-18T11:26:35.636Z,12.34
2022-09-18T11:29:39.816Z,12.59
2022-09-18T11:32:44.667Z,12.77
2022-09-18T11:35:49.843Z,12.80
2022-09-18T11:38:51.539Z,12.75
2022-09-18T11:41:54.735Z,12.69
2022-09-18T11:45:28.206Z,12.63
2022-09-18T11:48:38.585Z,12.54
2022-09-18T11:51:40.060Z,12.43
2022-09-18T11:55:12.166Z,12.32
2022-09-18T11:58:35.154Z,12.15
2022-09-18T12:01:46.004Z,12.00
2022-09-18T12:04:58.337Z,11.88
2022-09-18T12:08:17.293Z,11.87
2022-09-18T12:11:30.756Z,11.94
2022-09-18T12:14:58.417Z,12.06
2022-09-18T12:18:10.361Z,12.08
2022-09-18T12:21:18.691Z,12.00
2022-09-18T12:24:20.830Z,11.87
2022-09-18T12:27:35.212Z,11.74
2022-09-18T12:30:50.220Z,11.67
2022-09-18T12:34:10.431Z,11.67
2022-09-18T12:37:20.789Z,11.73
2022-09-18T12:40:34.029Z,11.79
2022-09-18T12:43:44.680Z,11.86
2022-09-18T12:47:04.620Z,11.91
2022-09-18T12:50:12.218Z,11.96
2022-09-18T12:53:16.915Z,11.98
2022-09-18T12:56:59.911Z,12.01
2022-09-18T13:00:10.985Z,11.97
2022-09-18T13:03:18.843Z,11.96
2022-09-18T13:06:33.228Z,12.04
2022-09-18T13:09:42.487Z,12.15
2022-09-18T13:12:56.397Z,12.23
2022-09-18T13:16:15.703Z,12.24
2022-09-18T13:19:31.487Z,12.20
2022-09-18T13:22:38.188Z,12.11
2022-09-18T13:25:41.438Z,11.95
2022-09-18T13:28:44.362Z,11.76
2022-09-18T13:31:53.608Z,11.56
2022-09-18T13:34:57.750Z,11.43
2022-09-18T13:38:19.619Z,11.36
2022-09-18T13:41:21.906Z,11.34
2022-09-18T13:44:29.000Z,11.41
2022-09-18T13:47:31.471Z,11.45
2022-09-18T13:50:35.496Z,11.52
2022-09-18T13:53:38.450Z,11.59
2022-09-18T13:57:09.588Z,11.68
2022-09-18T14:00:20.417Z,11.76
2022-09-18T14:03:27.678Z,11.86
2022-09-18T14:06:35.506Z,11.91
2022-09-18T14:09:52.502Z,11.88
2022-09-18T14:13:43.677Z,11.85
2022-09-18T14:16:46.073Z,11.84
2022-09-18T14:19:59.547Z,11.87
2022-09-18T14:23:40.991Z,11.94
2022-09-18T14:26:42.556Z,11.99
2022-09-18T14:29:46.948Z,12.05
2022-09-18T14:33:20.660Z,12.13
2022-09-18T14:36:22.329Z,12.22
2022-09-18T14:39:28.013Z,12.29
2022-09-18T14:42:32.624Z,12.29
2022-09-18T14:45:34.824Z,12.27
2022-09-18T14:48:38.810Z,12.24
2022-09-18T14:52:03.257Z,12.28
2022-09-18T14:55:11.514Z,12.32
2022-09-18T14:58:19.151Z,12.33
2022-09-18T15:01:28.408Z,12.28
2022-09-18T15:04:30.305Z,12.10
2022-09-18T15:07:31.912Z,11.83
2022-09-18T15:10:37.267Z,11.61
2022-09-18T15:13:39.526Z,11.38
2022-09-18T15:16:41.196Z,11.18
2022-09-18T15:19:54.882Z,11.02
2022-09-18T15:22:56.884Z,10.91
2022-09-18T15:26:03.012Z,10.81
2022-09-18T15:29:12.815Z,10.74
2022-09-18T15:32:24.287Z,10.71
2022-09-18T15:35:33.431Z,10.68
2022-09-18T15:38:42.724Z,10.65
2022-09-18T15:41:45.718Z,10.63
2022-09-18T15:44:50.247Z,10.63
2022-09-18T15:47:52.497Z,10.62
2022-09-18T15:51:13.019Z,10.61
2022-09-18T15:54:18.060Z,10.60
2022-09-18T15:57:19.743Z,10.58
2022-09-18T16:00:24.774Z,10.55
2022-09-18T16:03:30.121Z,10.54
2022-09-18T16:06:35.457Z,10.55
2022-09-18T16:09:40.235Z,10.57
2022-09-18T16:12:42.454Z,10.60
2022-09-18T16:15:47.749Z,10.66
2022-09-18T16:18:56.434Z,10.72
2022-09-18T16:22:06.824Z,10.73
2022-09-18T16:25:28.871Z,10.76
2022-09-18T16:28:32.913Z,10.76
2022-09-18T16:31:37.504Z,10.74
2022-09-18T16:34:40.292Z,10.73
2022-09-18T16:37:44.078Z,10.74
2022-09-18T16:40:46.924Z,10.72
2022-09-18T16:43:49.743Z,10.68
2022-09-18T16:46:59.990Z,10.61
2022-09-18T16:50:01.811Z,10.54
2022-09-18T16:53:03.811Z,10.49
2022-09-18T16:56:09.222Z,10.42
2022-09-18T16:59:11.338Z,10.34
2022-09-18T17:02:16.830Z,10.29
2022-09-18T17:05:18.596Z,10.26
2022-09-18T17:08:20.249Z,10.23
2022-09-18T17:11:21.856Z,10.21
2022-09-18T17:14:24.286Z,10.20
2022-09-18T17:17:25.969Z,10.18
2022-09-18T17:20:27.620Z,10.18
2022-09-18T17:23:33.056Z,10.14
2022-09-18T17:26:36.511Z,10.12
2022-09-18T17:29:38.234Z,10.12
2022-09-18T17:32:39.959Z,10.11
2022-09-18T17:35:41.691Z,10.10
2022-09-18T17:38:44.020Z,10.12
2022-09-18T17:41:45.921Z,10.13
2022-09-18T17:44:47.737Z,10.14
2022-09-18T17:47:53.351Z,10.20
2022-09-18T17:50:58.015Z,10.29
2022-09-18T17:54:05.182Z,10.19
2022-09-18T17:57:11.524Z,10.14
2022-09-18T18:00:13.572Z,10.12
2022-09-18T18:03:15.241Z,10.11
2022-09-18T18:06:21.621Z,10.08
2022-09-18T18:09:23.643Z,10.04
2022-09-18T18:12:25.265Z,9.99
2022-09-18T18:15:26.783Z,9.95
2022-09-18T18:18:28.364Z,9.91
2022-09-18T18:21:32.363Z,9.90
2022-09-18T18:24:34.207Z,9.88
2022-09-18T18:27:35.904Z,9.86
2022-09-18T18:30:38.496Z,9.85
2022-09-18T18:33:42.677Z,9.81
2022-09-18T18:36:44.294Z,9.78
2022-09-18T18:39:48.067Z,9.76
2022-09-18T18:42:49.964Z,9.72
2022-09-18T18:45:56.519Z,9.69
2022-09-18T18:49:02.788Z,9.70
2022-09-18T18:52:05.132Z,9.68
2022-09-18T18:55:06.870Z,9.68
2022-09-18T18:58:08.866Z,9.69
2022-09-18T19:01:14.304Z,9.69
2022-09-18T19:04:19.046Z,9.68
2022-09-18T19:07:20.579Z,9.69
2022-09-18T19:10:23.661Z,9.69
2022-09-18T19:13:25.733Z,9.70
2022-09-18T19:16:29.099Z,9.71
2022-09-18T19:19:30.817Z,9.70
2022-09-18T19:22:32.410Z,9.69
2022-09-18T19:25:34.510Z,9.70
2022-09-18T19:28:36.813Z,9.73
2022-09-18T19:31:40.416Z,9.74
2022-09-18T19:34:42.043Z,9.76
2022-09-18T19:37:43.612Z,9.78
2022-09-18T19:40:48.250Z,9.76
2022-09-18T19:43:50.236Z,9.73
2022-09-18T19:46:54.776Z,9.71
2022-09-18T19:49:58.392Z,9.68
2022-09-18T19:53:01.054Z,9.65
2022-09-18T19:56:18.436Z,9.63
2022-09-18T19:59:29.421Z,9.59
2022-09-18T20:02:31.036Z,9.57
2022-09-18T20:05:35.581Z,9.54
2022-09-18T20:08:37.136Z,9.52
2022-09-18T20:11:38.832Z,9.51
2022-09-18T20:14:40.561Z,9.49
2022-09-18T20:17:42.099Z,9.47
2022-09-18T20:20:44.700Z,9.44
2022-09-18T20:23:47.715Z,9.41
2022-09-18T20:26:51.151Z,9.38
2022-09-18T20:29:53.147Z,9.37
2022-09-18T20:32:54.960Z,9.36
2022-09-18T20:35:59.196Z,9.37
2022-09-18T20:39:02.283Z,9.40
2022-09-18T20:42:04.196Z,9.42
2022-09-18T20:45:07.568Z,9.41
2022-09-18T20:48:09.101Z,9.43
2022-09-18T20:51:14.323Z,9.42
2022-09-18T20:54:16.490Z,9.42
2022-09-18T20:57:18.115Z,9.43
2022-09-18T21:00:19.838Z,9.42
2022-09-18T21:03:21.426Z,9.43
2022-09-18T21:06:25.415Z,9.44
2022-09-18T21:09:30.762Z,9.45
2022-09-18T21:12:32.640Z,9.46
2022-09-18T21:15:34.937Z,9.43
2022-09-18T21:18:37.411Z,9.40
2022-09-18T21:21:40.087Z,9.36
2022-09-18T21:24:42.727Z,9.33
2022-09-18T21:27:44.319Z,9.29
2022-09-18T21:30:45.871Z,9.27
2022-09-18T21:33:48.359Z,9.25
2022-09-18T21:36:52.992Z,9.22
2022-09-18T21:39:54.544Z,9.21
2022-09-18T21:42:56.149Z,9.16
2022-09-18T21:46:06.515Z,9.20
2022-09-18T21:49:09.336Z,9.24
2022-09-18T21:52:11.199Z,9.25
2022-09-18T21:55:12.868Z,9.21
2022-09-18T21:58:14.403Z,9.18
2022-09-18T22:01:22.445Z,9.15
2022-09-18T22:04:27.026Z,9.13
2022-09-18T22:07:29.126Z,9.18
2022-09-18T22:10:30.716Z,9.21
2022-09-18T22:13:35.165Z,9.19
2022-09-18T22:16:38.579Z,9.28
2022-09-18T22:19:41.693Z,9.21
2022-09-18T22:22:43.730Z,9.15
2022-09-18T22:25:46.095Z,9.08
2022-09-18T22:28:49.850Z,9.03
2022-09-18T22:31:51.816Z,8.96
2022-09-18T22:34:54.509Z,8.90
2022-09-18T22:37:56.098Z,8.83
2022-09-18T22:41:02.968Z,8.77
2022-09-18T22:44:05.944Z,8.70
2022-09-18T22:47:07.538Z,8.63
2022-09-18T22:50:09.318Z,8.57
2022-09-18T22:53:11.699Z,8.51
2022-09-18T22:56:14.676Z,8.46
2022-09-18T22:59:17.979Z,8.42
2022-09-18T23:02:20.817Z,8.37
2022-09-18T23:05:22.416Z,8.31
2022-09-18T23:08:25.035Z,8.27
2022-09-18T23:11:29.735Z,8.24
2022-09-18T23:14:31.611Z,8.19
2022-09-18T23:17:33.249Z,8.17
2022-09-18T23:20:34.776Z,8.12
2022-09-18T23:23:39.355Z,8.09
2022-09-18T23:26:42.846Z,8.04
2022-09-18T23:29:44.533Z,8.00
2022-09-18T23:32:48.560Z,7.96
2022-09-18T23:35:50.257Z,7.93
2022-09-18T23:38:56.353Z,7.89
2022-09-18T23:41:59.374Z,7.85
2022-09-18T23:45:00.916Z,7.81
2022-09-18T23:48:02.552Z,7.76
2022-09-18T23:51:05.700Z,7.73
2022-09-18T23:54:12.447Z,7.70
2022-09-18T23:57:14.068Z,7.68
